createdAt,value
2023-08-24T00:00:18.067Z,80.23
2023-08-24T00:01:20.026Z,79.79
2023-08-24T00:02:22.129Z,79.46
2023-08-24T00:03:24.255Z,79.58
2023-08-24T00:04:26.332Z,79.26
2023-08-24T00:05:28.230Z,79.87
2023-08-24T00:06:30.236Z,79.65
2023-08-24T00:07:32.451Z,79.22
2023-08-24T00:08:34.364Z,78.86
2023-08-24T00:09:36.282Z,78.49
2023-08-24T00:10:38.550Z,78.33
2023-08-24T00:11:40.476Z,78.43
2023-08-24T00:12:42.473Z,78.28
2023-08-24T00:13:45.289Z,78.62
2023-08-24T00:14:47.208Z,80.19
2023-08-24T00:15:49.202Z,81.03
2023-08-24T00:16:51.627Z,81.07
2023-08-24T00:17:53.801Z,82.65
2023-08-24T00:18:56.155Z,81.95
2023-08-24T00:19:58.256Z,81.52
2023-08-24T00:21:00.265Z,81.20
2023-08-24T00:22:02.948Z,81.77
2023-08-24T00:23:04.981Z,82.18
2023-08-24T00:24:07.357Z,82.99
2023-08-24T00:25:09.953Z,82.98
2023-08-24T00:26:12.140Z,82.98
2023-08-24T00:27:14.197Z,82.06
2023-08-24T00:28:16.106Z,82.51
2023-08-24T00:29:17.998Z,82.48
2023-08-24T00:30:20.450Z,82.64
2023-08-24T00:31:23.458Z,82.96
2023-08-24T00:32:25.650Z,81.47
2023-08-24T00:33:27.670Z,80.50
2023-08-24T00:34:29.587Z,81.47
2023-08-24T00:35:31.603Z,83.00
2023-08-24T00:36:33.817Z,83.49
2023-08-24T00:37:37.441Z,84.09
2023-08-24T00:38:39.368Z,84.21
2023-08-24T00:39:41.262Z,84.25
2023-08-24T00:40:43.731Z,84.48
2023-08-24T00:41:45.665Z,84.20
2023-08-24T00:42:47.570Z,83.63
2023-08-24T00:43:49.467Z,84.03
2023-08-24T00:44:51.504Z,85.49
2023-08-24T00:45:57.180Z,85.90
2023-08-24T00:46:59.713Z,85.73
2023-08-24T00:48:04.325Z,85.99
2023-08-24T00:49:06.445Z,87.01
2023-08-24T00:50:09.594Z,87.38
2023-08-24T00:51:11.849Z,87.38
2023-08-24T00:52:14.763Z,87.03
2023-08-24T00:53:16.791Z,86.99
2023-08-24T00:54:20.227Z,86.85
2023-08-24T00:55:22.502Z,86.86
2023-08-24T00:56:25.161Z,85.69
2023-08-24T00:57:28.821Z,85.74
2023-08-24T00:58:32.745Z,86.34
2023-08-24T00:59:35.020Z,87.63
2023-08-24T01:00:38.052Z,87.71
2023-08-24T01:01:43.796Z,87.59
2023-08-24T01:02:45.880Z,87.73
2023-08-24T01:03:48.141Z,87.17
2023-08-24T01:04:50.771Z,86.73
2023-08-24T01:05:53.693Z,85.80
2023-08-24T01:06:56.624Z,85.00
2023-08-24T01:07:58.940Z,82.80
2023-08-24T01:09:01.287Z,81.67
2023-08-24T01:10:04.958Z,81.02
2023-08-24T01:11:16.860Z,80.94
2023-08-24T01:12:39.274Z,80.96
2023-08-24T01:14:16.126Z,81.10
2023-08-24T01:15:21.856Z,81.12
2023-08-24T01:16:28.392Z,83.18
2023-08-24T01:17:32.917Z,83.39
2023-08-24T01:18:38.222Z,83.65
2023-08-24T01:19:42.896Z,84.45
2023-08-24T01:20:45.433Z,84.80
2023-08-24T01:21:48.468Z,85.84
2023-08-24T01:23:00.336Z,85.66
2023-08-24T01:24:09.197Z,86.21
2023-08-24T01:25:26.835Z,86.86
2023-08-24T01:26:31.282Z,87.14
2023-08-24T01:27:35.305Z,87.23
2023-08-24T01:28:38.141Z,87.52
2023-08-24T01:29:41.278Z,87.74
2023-08-24T01:30:44.093Z,88.10
2023-08-24T01:31:49.563Z,87.87
2023-08-24T01:32:52.763Z,87.59
2023-08-24T01:33:54.993Z,87.30
2023-08-24T01:34:56.912Z,87.21
2023-08-24T01:35:59.037Z,86.96
2023-08-24T01:37:02.110Z,86.69
2023-08-24T01:38:04.834Z,86.38
2023-08-24T01:39:22.585Z,85.82
2023-08-24T01:40:29.162Z,85.11
2023-08-24T01:41:35.079Z,84.12
2023-08-24T01:42:59.097Z,84.33
2023-08-24T01:44:03.868Z,84.23
2023-08-24T01:45:08.873Z,84.17
2023-08-24T01:46:18.195Z,84.36
2023-08-24T01:47:21.901Z,84.39
2023-08-24T01:48:27.370Z,84.36
2023-08-24T01:49:30.718Z,84.24
2023-08-24T01:50:34.357Z,84.33
2023-08-24T01:51:37.347Z,84.16
2023-08-24T01:52:40.429Z,84.60
2023-08-24T01:53:43.567Z,84.65
2023-08-24T01:54:47.955Z,84.81
2023-08-24T01:55:50.008Z,84.99
2023-08-24T01:56:52.206Z,84.81
2023-08-24T01:57:56.409Z,84.71
2023-08-24T01:58:58.497Z,84.93
2023-08-24T02:00:00.441Z,85.40
2023-08-24T02:01:03.644Z,85.71
2023-08-24T02:02:06.662Z,85.71
2023-08-24T02:03:08.813Z,85.63
2023-08-24T02:04:11.008Z,85.68
2023-08-24T02:05:12.921Z,85.50
2023-08-24T02:06:15.406Z,85.35
2023-08-24T02:07:17.303Z,85.15
2023-08-24T02:08:19.327Z,84.99
2023-08-24T02:09:21.403Z,85.35
2023-08-24T02:10:24.029Z,85.18
2023-08-24T02:11:26.043Z,85.67
2023-08-24T02:12:27.974Z,85.80
2023-08-24T02:13:30.010Z,86.20
2023-08-24T02:14:33.957Z,86.06
2023-08-24T02:15:38.662Z,86.23
2023-08-24T02:16:40.812Z,86.92
2023-08-24T02:17:42.867Z,86.78
2023-08-24T02:18:44.916Z,87.23
2023-08-24T02:19:46.824Z,87.85
2023-08-24T02:20:49.043Z,88.56
2023-08-24T02:21:50.937Z,88.71
2023-08-24T02:22:53.025Z,88.65
2023-08-24T02:23:54.903Z,88.28
2023-08-24T02:24:56.985Z,88.37
2023-08-24T02:25:58.912Z,88.52
2023-08-24T02:27:01.737Z,88.65
2023-08-24T02:28:04.619Z,88.67
2023-08-24T02:29:07.900Z,88.23
2023-08-24T02:30:11.454Z,87.89
2023-08-24T02:31:13.396Z,87.48
2023-08-24T02:32:15.289Z,87.36
2023-08-24T02:33:17.310Z,87.14
2023-08-24T02:34:20.840Z,87.11
2023-08-24T02:35:22.883Z,86.74
2023-08-24T02:36:25.652Z,86.75
2023-08-24T02:37:27.597Z,86.84
2023-08-24T02:38:30.292Z,86.29
2023-08-24T02:39:33.437Z,86.03
2023-08-24T02:40:36.207Z,86.21
2023-08-24T02:41:39.828Z,86.24
2023-08-24T02:42:41.794Z,86.29
2023-08-24T02:43:46.214Z,86.17
2023-08-24T02:44:48.102Z,86.60
2023-08-24T02:45:50.163Z,86.60
2023-08-24T02:46:55.019Z,86.60
2023-08-24T02:47:57.479Z,86.79
2023-08-24T02:48:59.492Z,87.25
2023-08-24T02:50:01.416Z,87.25
2023-08-24T02:51:05.619Z,86.69
2023-08-24T02:52:07.651Z,86.80
2023-08-24T02:53:09.619Z,88.66
2023-08-24T02:54:11.520Z,87.47
2023-08-24T02:55:13.591Z,87.33
2023-08-24T02:56:16.277Z,87.06
2023-08-24T02:57:18.196Z,86.31
2023-08-24T02:58:20.654Z,86.49
2023-08-24T02:59:22.666Z,86.92
2023-08-24T03:00:24.752Z,86.90
2023-08-24T03:01:26.922Z,86.28
2023-08-24T03:02:28.939Z,86.35
2023-08-24T03:03:30.893Z,86.67
2023-08-24T03:04:32.797Z,87.51
2023-08-24T03:05:34.696Z,87.59
2023-08-24T03:06:36.824Z,87.83
2023-08-24T03:07:38.748Z,86.91
2023-08-24T03:08:41.249Z,86.82
2023-08-24T03:09:43.587Z,86.62
2023-08-24T03:10:46.243Z,85.84
2023-08-24T03:11:48.190Z,84.93
2023-08-24T03:12:50.350Z,84.64
2023-08-24T03:13:52.370Z,85.57
2023-08-24T03:14:54.450Z,86.16
2023-08-24T03:15:57.138Z,85.49
2023-08-24T03:16:59.389Z,85.25
2023-08-24T03:18:01.552Z,85.36
2023-08-24T03:19:03.554Z,85.58
2023-08-24T03:20:07.489Z,84.98
2023-08-24T03:21:09.650Z,84.98
2023-08-24T03:22:11.570Z,84.09
2023-08-24T03:23:13.702Z,84.04
2023-08-24T03:24:15.839Z,83.80
2023-08-24T03:25:17.808Z,83.84
2023-08-24T03:26:20.250Z,83.77
2023-08-24T03:27:22.885Z,83.67
2023-08-24T03:28:24.897Z,83.80
2023-08-24T03:29:26.935Z,83.84
2023-08-24T03:30:29.409Z,84.05
2023-08-24T03:31:31.545Z,83.93
2023-08-24T03:32:33.841Z,83.91
2023-08-24T03:33:35.832Z,84.36
2023-08-24T03:34:37.912Z,84.91
2023-08-24T03:35:40.727Z,86.30
2023-08-24T03:36:42.785Z,87.01
2023-08-24T03:37:44.743Z,87.32
2023-08-24T03:38:46.948Z,87.60
2023-08-24T03:39:49.027Z,87.60
2023-08-24T03:40:51.219Z,87.83
2023-08-24T03:41:53.261Z,87.37
2023-08-24T03:42:55.394Z,86.51
2023-08-24T03:43:57.398Z,86.12
2023-08-24T03:45:02.602Z,85.63
2023-08-24T03:46:05.574Z,85.16
2023-08-24T03:47:09.329Z,84.57
2023-08-24T03:48:11.422Z,84.39
2023-08-24T03:49:13.519Z,84.69
2023-08-24T03:50:17.181Z,85.42
2023-08-24T03:51:19.324Z,85.93
2023-08-24T03:52:22.080Z,86.00
2023-08-24T03:53:24.840Z,86.48
2023-08-24T03:54:26.882Z,85.83
2023-08-24T03:55:28.808Z,84.87
2023-08-24T03:56:30.856Z,84.39
2023-08-24T03:57:33.821Z,84.52
2023-08-24T03:58:38.033Z,84.26
2023-08-24T03:59:40.398Z,83.89
2023-08-24T04:00:44.323Z,84.39
2023-08-24T04:01:47.820Z,84.64
2023-08-24T04:02:49.828Z,84.99
2023-08-24T04:03:51.828Z,85.07
2023-08-24T04:04:54.192Z,85.70
2023-08-24T04:05:56.747Z,85.53
2023-08-24T04:06:59.035Z,84.94
2023-08-24T04:08:01.058Z,84.80
2023-08-24T04:09:05.609Z,84.51
2023-08-24T04:10:09.022Z,84.79
2023-08-24T04:11:11.102Z,84.29
2023-08-24T04:12:13.141Z,84.27
2023-08-24T04:13:15.694Z,83.80
2023-08-24T04:14:17.810Z,83.59
2023-08-24T04:15:21.532Z,83.13
2023-08-24T04:16:25.732Z,83.13
2023-08-24T04:17:27.701Z,83.25
2023-08-24T04:18:29.981Z,83.15
2023-08-24T04:19:32.324Z,83.82
2023-08-24T04:20:34.377Z,83.73
2023-08-24T04:21:36.357Z,83.85
2023-08-24T04:22:38.643Z,83.72
2023-08-24T04:23:40.644Z,84.05
2023-08-24T04:24:42.677Z,84.24
2023-08-24T04:25:44.586Z,83.62
2023-08-24T04:26:46.887Z,83.87
2023-08-24T04:27:49.406Z,83.68
2023-08-24T04:28:52.430Z,83.94
2023-08-24T04:29:54.359Z,84.58
2023-08-24T04:30:58.348Z,84.51
2023-08-24T04:32:00.491Z,84.25
2023-08-24T04:33:02.936Z,83.97
2023-08-24T04:34:04.974Z,83.61
2023-08-24T04:35:08.502Z,83.24
2023-08-24T04:36:10.961Z,83.97
2023-08-24T04:37:12.864Z,83.63
2023-08-24T04:38:15.573Z,83.74
2023-08-24T04:39:17.627Z,83.69
2023-08-24T04:40:21.644Z,83.04
2023-08-24T04:41:23.675Z,83.22
2023-08-24T04:42:25.736Z,82.91
2023-08-24T04:43:27.659Z,82.77
2023-08-24T04:44:30.750Z,82.59
2023-08-24T04:45:32.844Z,83.30
2023-08-24T04:46:34.913Z,84.04
2023-08-24T04:47:37.708Z,84.37
2023-08-24T04:48:39.719Z,84.17
2023-08-24T04:49:41.717Z,83.98
2023-08-24T04:50:47.314Z,84.09
2023-08-24T04:51:49.900Z,84.22
2023-08-24T04:52:51.814Z,84.72
2023-08-24T04:53:54.478Z,84.74
2023-08-24T04:54:56.382Z,84.26
2023-08-24T04:56:00.201Z,84.44
2023-08-24T04:57:02.340Z,83.88
2023-08-24T04:58:05.744Z,83.88
2023-08-24T04:59:07.852Z,84.22
2023-08-24T05:00:11.273Z,84.14
2023-08-24T05:01:13.217Z,83.44
2023-08-24T05:02:15.364Z,82.88
2023-08-24T05:03:17.378Z,82.20
2023-08-24T05:04:19.341Z,82.32
2023-08-24T05:05:21.261Z,81.43
2023-08-24T05:06:23.485Z,80.85
2023-08-24T05:07:25.458Z,80.51
2023-08-24T05:08:27.394Z,80.36
2023-08-24T05:09:29.393Z,80.30
2023-08-24T05:10:32.797Z,79.73
2023-08-24T05:11:34.733Z,78.99
2023-08-24T05:12:36.685Z,78.22
2023-08-24T05:13:42.002Z,77.66
2023-08-24T05:14:44.042Z,77.20
2023-08-24T05:15:47.606Z,76.77
2023-08-24T05:16:49.640Z,75.59
2023-08-24T05:17:53.289Z,75.59
2023-08-24T05:18:55.473Z,76.03
2023-08-24T05:19:59.558Z,75.20
2023-08-24T05:21:01.718Z,74.34
2023-08-24T05:22:03.772Z,73.59
2023-08-24T05:23:05.730Z,72.60
2023-08-24T05:24:08.223Z,71.67
2023-08-24T05:25:10.255Z,71.17
2023-08-24T05:26:12.441Z,70.56
2023-08-24T05:27:16.341Z,69.87
2023-08-24T05:28:18.311Z,69.17
2023-08-24T05:29:20.320Z,68.26
2023-08-24T05:30:22.365Z,68.07
2023-08-24T05:31:24.870Z,67.42
2023-08-24T05:32:26.821Z,66.81
2023-08-24T05:33:28.752Z,66.76
2023-08-24T05:34:30.816Z,67.16
2023-08-24T05:35:32.737Z,66.42
2023-08-24T05:36:35.058Z,66.86
2023-08-24T05:37:38.444Z,67.56
2023-08-24T05:38:51.339Z,66.54
2023-08-24T05:39:44.660Z,66.16
2023-08-24T05:40:50.189Z,66.18
2023-08-24T05:41:53.166Z,66.20
2023-08-24T05:42:55.206Z,66.23
2023-08-24T05:43:57.166Z,66.22
2023-08-24T05:44:59.168Z,65.44
2023-08-24T05:46:01.208Z,63.77
2023-08-24T05:47:03.612Z,60.32
2023-08-24T05:48:07.178Z,58.43
2023-08-24T05:49:09.692Z,55.82
2023-08-24T05:50:12.129Z,54.50
2023-08-24T05:51:14.566Z,53.57
2023-08-24T05:52:17.546Z,53.01
2023-08-24T05:53:19.485Z,52.22
2023-08-24T05:54:21.554Z,52.87
2023-08-24T05:55:23.609Z,55.16
2023-08-24T05:56:25.873Z,54.95
2023-08-24T05:57:27.820Z,55.36
2023-08-24T05:58:30.087Z,55.63
2023-08-24T05:59:33.836Z,54.98
2023-08-24T06:00:35.998Z,53.30
2023-08-24T06:01:39.175Z,52.45
2023-08-24T06:02:41.521Z,52.02
2023-08-24T06:03:43.694Z,52.98
2023-08-24T06:04:45.789Z,53.22
2023-08-24T06:05:47.712Z,52.44
2023-08-24T06:06:49.738Z,51.16
2023-08-24T06:07:51.995Z,50.63
2023-08-24T06:08:55.368Z,49.61
2023-08-24T06:09:57.722Z,48.92
2023-08-24T06:10:59.864Z,48.70
2023-08-24T06:12:01.928Z,48.04
2023-08-24T06:13:03.976Z,47.55
2023-08-24T06:14:07.561Z,47.18
2023-08-24T06:15:09.891Z,47.18
2023-08-24T06:16:13.229Z,46.34
2023-08-24T06:17:15.732Z,46.39
2023-08-24T06:18:18.758Z,46.45
2023-08-24T06:19:21.214Z,45.64
2023-08-24T06:20:23.245Z,45.40
2023-08-24T06:21:26.807Z,45.73
2023-08-24T06:22:29.560Z,46.42
2023-08-24T06:23:33.382Z,46.69
2023-08-24T06:24:36.717Z,47.21
2023-08-24T06:25:38.867Z,46.97
2023-08-24T06:26:40.971Z,46.83
2023-08-24T06:27:42.864Z,47.41
2023-08-24T06:28:45.035Z,47.24
2023-08-24T06:29:46.977Z,46.48
2023-08-24T06:30:49.100Z,45.81
2023-08-24T06:31:51.031Z,45.01
2023-08-24T06:32:54.004Z,44.84
2023-08-24T06:33:56.136Z,44.02
2023-08-24T06:35:00.227Z,44.15
2023-08-24T06:36:03.932Z,45.87
2023-08-24T06:37:05.901Z,45.57
2023-08-24T06:38:09.853Z,44.43
2023-08-24T06:39:11.766Z,43.69
2023-08-24T06:40:14.247Z,43.59
2023-08-24T06:41:16.507Z,44.54
2023-08-24T06:42:18.420Z,45.22
2023-08-24T06:43:20.531Z,45.68
2023-08-24T06:44:23.611Z,45.69
2023-08-24T06:45:25.769Z,45.25
2023-08-24T06:46:29.440Z,44.21
2023-08-24T06:47:31.445Z,44.42
2023-08-24T06:48:34.282Z,43.63
2023-08-24T06:49:36.173Z,43.14
2023-08-24T06:50:39.402Z,42.83
2023-08-24T06:51:41.515Z,43.02
2023-08-24T06:52:43.413Z,44.12
2023-08-24T06:53:47.011Z,44.16
2023-08-24T06:54:48.922Z,43.58
2023-08-24T06:55:57.659Z,44.41
2023-08-24T06:56:59.781Z,43.98
2023-08-24T06:58:01.711Z,44.59
2023-08-24T06:59:03.709Z,44.44
2023-08-24T07:00:07.603Z,44.37
2023-08-24T07:01:10.618Z,43.87
2023-08-24T07:02:13.013Z,44.47
2023-08-24T07:03:17.428Z,44.11
2023-08-24T07:04:19.468Z,44.19
2023-08-24T07:05:24.050Z,43.48
2023-08-24T07:06:26.334Z,44.17
2023-08-24T07:07:28.247Z,44.28
2023-08-24T07:08:30.248Z,44.05
2023-08-24T07:09:32.263Z,44.51
2023-08-24T07:10:34.982Z,43.99
2023-08-24T07:11:36.907Z,43.67
2023-08-24T07:12:39.369Z,43.38
2023-08-24T07:13:41.280Z,43.44
2023-08-24T07:14:43.197Z,43.01
2023-08-24T07:15:45.162Z,43.51
2023-08-24T07:16:47.250Z,42.88
2023-08-24T07:17:49.659Z,43.11
2023-08-24T07:18:53.187Z,43.34
2023-08-24T07:19:55.193Z,43.56
2023-08-24T07:20:58.038Z,42.55
2023-08-24T07:21:59.948Z,42.12
2023-08-24T07:23:03.845Z,43.42
2023-08-24T07:24:06.764Z,43.22
2023-08-24T07:25:09.435Z,43.43
2023-08-24T07:26:13.164Z,45.13
2023-08-24T07:27:15.091Z,44.49
2023-08-24T07:28:16.999Z,43.74
2023-08-24T07:29:20.302Z,42.95
2023-08-24T07:30:31.160Z,42.70
2023-08-24T07:31:27.299Z,42.85
2023-08-24T07:32:29.510Z,42.84
2023-08-24T07:33:31.490Z,43.32
2023-08-24T07:34:33.457Z,42.90
2023-08-24T07:35:35.361Z,43.30
2023-08-24T07:36:38.898Z,42.79
2023-08-24T07:37:40.910Z,41.93
2023-08-24T07:38:42.828Z,41.26
2023-08-24T07:39:44.846Z,41.19
2023-08-24T07:40:46.954Z,41.63
2023-08-24T07:41:49.772Z,42.03
2023-08-24T07:42:53.799Z,42.27
2023-08-24T07:43:55.782Z,42.19
2023-08-24T07:44:58.454Z,43.50
2023-08-24T07:46:00.428Z,43.15
2023-08-24T07:47:02.728Z,43.71
2023-08-24T07:48:06.109Z,43.52
2023-08-24T07:49:08.298Z,43.59
2023-08-24T07:50:11.488Z,43.74
2023-08-24T07:51:13.544Z,42.68
2023-08-24T07:52:15.792Z,42.59
2023-08-24T07:53:17.724Z,42.72
2023-08-24T07:54:19.740Z,42.43
2023-08-24T07:55:22.027Z,42.00
2023-08-24T07:56:24.410Z,41.65
2023-08-24T07:57:28.032Z,41.61
2023-08-24T07:58:29.965Z,41.73
2023-08-24T07:59:32.114Z,42.02
2023-08-24T08:00:34.403Z,41.65
2023-08-24T08:01:36.732Z,41.16
2023-08-24T08:02:39.169Z,41.15
2023-08-24T08:03:41.707Z,41.28
2023-08-24T08:04:44.708Z,40.92
2023-08-24T08:05:47.491Z,40.82
2023-08-24T08:06:49.876Z,40.82
2023-08-24T08:07:52.365Z,41.00
2023-08-24T08:08:54.617Z,40.34
2023-08-24T08:09:56.633Z,41.21
2023-08-24T08:11:00.400Z,40.57
2023-08-24T08:12:02.706Z,40.12
2023-08-24T08:13:04.849Z,39.74
2023-08-24T08:14:06.976Z,40.91
2023-08-24T08:15:09.760Z,41.49
2023-08-24T08:16:12.726Z,41.45
2023-08-24T08:17:16.265Z,40.56
2023-08-24T08:18:18.363Z,40.26
2023-08-24T08:19:20.580Z,39.72
2023-08-24T08:20:22.722Z,40.56
2023-08-24T08:21:25.143Z,40.72
2023-08-24T08:22:28.927Z,40.63
2023-08-24T08:23:31.053Z,40.64
2023-08-24T08:24:33.939Z,40.58
2023-08-24T08:25:35.856Z,41.04
2023-08-24T08:26:37.892Z,42.28
2023-08-24T08:27:39.818Z,41.94
2023-08-24T08:28:42.061Z,40.93
2023-08-24T08:29:44.247Z,40.99
2023-08-24T08:30:48.718Z,40.62
2023-08-24T08:31:50.882Z,40.87
2023-08-24T08:32:52.938Z,41.28
2023-08-24T08:33:57.288Z,42.02
2023-08-24T08:35:00.130Z,41.80
2023-08-24T08:36:02.701Z,41.18
2023-08-24T08:37:04.693Z,40.72
2023-08-24T08:38:07.198Z,41.70
2023-08-24T08:39:09.155Z,41.95
2023-08-24T08:40:12.444Z,41.79
2023-08-24T08:41:17.292Z,42.21
2023-08-24T08:42:20.058Z,42.04
2023-08-24T08:43:23.066Z,41.71
2023-08-24T08:44:28.734Z,41.75
2023-08-24T08:45:31.178Z,41.31
2023-08-24T08:46:33.619Z,41.02
2023-08-24T08:47:36.131Z,40.31
2023-08-24T08:48:41.834Z,40.29
2023-08-24T08:49:45.554Z,39.73
2023-08-24T08:50:49.661Z,39.49
2023-08-24T08:51:53.328Z,39.19
2023-08-24T08:52:56.739Z,40.00
2023-08-24T08:53:58.686Z,39.51
2023-08-24T08:55:01.399Z,39.89
2023-08-24T08:56:04.655Z,39.55
2023-08-24T08:57:08.447Z,39.86
2023-08-24T08:58:11.383Z,40.91
2023-08-24T08:59:17.026Z,40.48
2023-08-24T09:00:19.726Z,39.89
2023-08-24T09:01:22.702Z,39.08
2023-08-24T09:02:25.213Z,39.98
2023-08-24T09:03:31.101Z,39.77
2023-08-24T09:04:34.285Z,39.77
2023-08-24T09:05:39.015Z,39.26
2023-08-24T09:06:42.854Z,39.29
2023-08-24T09:07:45.440Z,38.50
2023-08-24T09:08:50.058Z,39.58
2023-08-24T09:09:53.234Z,39.16
2023-08-24T09:10:55.966Z,39.00
2023-08-24T09:11:58.571Z,39.66
2023-08-24T09:13:01.053Z,40.35
2023-08-24T09:14:02.970Z,39.59
2023-08-24T09:15:07.009Z,39.87
2023-08-24T09:16:09.477Z,39.67
2023-08-24T09:17:22.419Z,38.47
2023-08-24T09:18:28.854Z,38.44
2023-08-24T09:19:33.661Z,38.66
2023-08-24T09:20:36.187Z,38.79
2023-08-24T09:21:39.853Z,39.48
2023-08-24T09:22:43.214Z,39.95
2023-08-24T09:23:53.316Z,40.50
2023-08-24T09:24:55.426Z,40.72
2023-08-24T09:25:57.560Z,41.30
2023-08-24T09:27:02.455Z,41.44
2023-08-24T09:28:07.346Z,41.05
2023-08-24T09:29:14.989Z,41.15
2023-08-24T09:30:17.574Z,41.01
2023-08-24T09:31:19.717Z,40.83
2023-08-24T09:32:23.036Z,40.16
2023-08-24T09:33:25.045Z,39.89
2023-08-24T09:34:27.199Z,39.89
2023-08-24T09:35:30.615Z,40.47
2023-08-24T09:36:35.048Z,40.15
2023-08-24T09:37:37.851Z,39.77
2023-08-24T09:38:48.769Z,40.32
2023-08-24T09:39:54.499Z,40.23
2023-08-24T09:40:58.368Z,39.81
2023-08-24T09:42:01.991Z,39.63
2023-08-24T09:43:04.025Z,39.64
2023-08-24T09:44:07.276Z,39.04
2023-08-24T09:45:14.108Z,38.90
2023-08-24T09:46:23.182Z,38.90
2023-08-24T09:47:25.613Z,38.77
2023-08-24T09:48:30.020Z,38.52
2023-08-24T09:49:32.149Z,38.68
2023-08-24T09:50:35.398Z,38.86
2023-08-24T09:51:39.441Z,38.80
2023-08-24T09:52:43.051Z,38.48
2023-08-24T09:53:46.230Z,38.81
2023-08-24T09:54:50.825Z,39.15
2023-08-24T09:56:01.364Z,39.76
2023-08-24T09:57:06.393Z,39.87
2023-08-24T09:58:10.455Z,40.11
2023-08-24T09:59:17.996Z,39.95
2023-08-24T10:00:20.575Z,39.78
2023-08-24T10:01:25.026Z,39.24
2023-08-24T10:02:30.680Z,39.19
2023-08-24T10:03:34.681Z,39.65
2023-08-24T10:04:38.515Z,39.46
2023-08-24T10:05:52.127Z,38.87
2023-08-24T10:06:50.041Z,38.89
2023-08-24T10:07:55.434Z,38.59
2023-08-24T10:09:01.472Z,38.49
2023-08-24T10:10:06.483Z,38.25
2023-08-24T10:11:11.569Z,38.24
2023-08-24T10:12:17.215Z,38.17
2023-08-24T10:13:22.963Z,38.62
2023-08-24T10:14:34.886Z,39.05
2023-08-24T10:15:39.373Z,39.27
2023-08-24T10:16:44.904Z,39.52
2023-08-24T10:17:48.580Z,39.67
2023-08-24T10:18:53.392Z,39.91
2023-08-24T10:19:57.449Z,39.76
2023-08-24T10:21:01.173Z,39.82
2023-08-24T10:22:04.036Z,39.20
2023-08-24T10:23:06.781Z,38.76
2023-08-24T10:24:09.264Z,38.96
2023-08-24T10:25:12.081Z,39.59
2023-08-24T10:26:17.261Z,39.16
2023-08-24T10:27:23.382Z,39.06
2023-08-24T10:28:28.296Z,39.74
2023-08-24T10:29:31.370Z,39.41
2023-08-24T10:30:36.558Z,39.02
2023-08-24T10:31:41.869Z,38.80
2023-08-24T10:32:45.888Z,38.82
2023-08-24T10:33:50.692Z,38.85
2023-08-24T10:34:53.872Z,38.95
2023-08-24T10:35:56.946Z,38.98
2023-08-24T10:37:08.614Z,38.84
2023-08-24T10:38:25.692Z,38.49
2023-08-24T10:39:28.968Z,38.78
2023-08-24T10:40:37.436Z,38.26
2023-08-24T10:41:53.828Z,38.29
2023-08-24T10:42:56.035Z,38.18
2023-08-24T10:44:07.815Z,38.04
2023-08-24T10:45:14.986Z,37.58
2023-08-24T10:46:17.354Z,38.93
2023-08-24T10:47:24.642Z,38.82
2023-08-24T10:48:33.288Z,38.49
2023-08-24T10:49:35.374Z,38.18
2023-08-24T10:50:40.376Z,37.49
2023-08-24T10:51:45.765Z,37.48
2023-08-24T10:52:47.845Z,37.59
2023-08-24T10:53:55.972Z,37.67
2023-08-24T10:55:04.460Z,37.37
2023-08-24T10:56:14.524Z,37.30
2023-08-24T10:57:27.622Z,37.83
2023-08-24T10:58:33.404Z,38.48
2023-08-24T10:59:49.365Z,38.50
2023-08-24T11:00:40.603Z,37.64
2023-08-24T11:01:45.304Z,37.30
2023-08-24T11:02:51.824Z,37.57
2023-08-24T11:03:58.921Z,37.59
2023-08-24T11:05:09.839Z,37.40
2023-08-24T11:06:19.519Z,37.28
2023-08-24T11:07:21.768Z,37.47
2023-08-24T11:08:50.504Z,37.73
2023-08-24T11:09:53.176Z,37.58
2023-08-24T11:10:55.303Z,38.27
2023-08-24T11:12:02.507Z,38.17
2023-08-24T11:13:07.826Z,37.90
2023-08-24T11:14:20.763Z,38.72
2023-08-24T11:16:46.914Z,38.12
2023-08-24T11:17:52.716Z,38.09
2023-08-24T11:18:55.240Z,38.75
2023-08-24T11:19:57.661Z,38.96
2023-08-24T11:21:05.975Z,38.73
2023-08-24T11:22:09.920Z,38.51
2023-08-24T11:23:13.661Z,38.05
2023-08-24T11:24:17.086Z,37.69
2023-08-24T11:25:19.570Z,37.74
2023-08-24T11:26:21.574Z,37.20
2023-08-24T11:27:24.141Z,37.73
2023-08-24T11:28:28.072Z,37.80
2023-08-24T11:29:30.139Z,38.17
2023-08-24T11:30:32.835Z,37.59
2023-08-24T11:31:36.203Z,36.86
2023-08-24T11:32:38.585Z,37.45
2023-08-24T11:33:41.631Z,37.96
2023-08-24T11:34:43.567Z,37.88
2023-08-24T11:35:46.970Z,38.36
2023-08-24T11:36:50.681Z,37.73
2023-08-24T11:37:53.545Z,37.48
2023-08-24T11:39:00.768Z,37.52
2023-08-24T11:40:03.614Z,37.92
2023-08-24T11:41:17.043Z,38.16
2023-08-24T11:42:19.199Z,37.92
2023-08-24T11:43:25.892Z,38.32
2023-08-24T11:44:30.074Z,38.04
2023-08-24T11:45:37.522Z,38.38
2023-08-24T11:46:39.772Z,38.44
2023-08-24T11:47:43.017Z,38.03
2023-08-24T11:48:46.016Z,38.24
2023-08-24T11:49:49.814Z,38.33
2023-08-24T11:50:52.304Z,38.32
2023-08-24T11:51:54.974Z,38.08
2023-08-24T11:52:57.473Z,38.52
2023-08-24T11:53:59.899Z,38.13
2023-08-24T11:55:03.622Z,37.90
2023-08-24T11:56:08.817Z,37.83
2023-08-24T11:57:10.772Z,38.13
2023-08-24T11:58:16.338Z,37.68
2023-08-24T11:59:19.426Z,37.64
2023-08-24T12:00:22.682Z,38.05
2023-08-24T12:01:26.443Z,38.58
2023-08-24T12:02:29.913Z,38.61
2023-08-24T12:03:32.924Z,38.36
2023-08-24T12:04:40.642Z,38.04
2023-08-24T12:05:42.828Z,38.03
2023-08-24T12:06:45.045Z,38.33
2023-08-24T12:07:47.223Z,37.90
2023-08-24T12:08:49.252Z,37.67
2023-08-24T12:09:52.046Z,37.77
2023-08-24T12:10:54.430Z,37.75
2023-08-24T12:11:56.474Z,37.47
2023-08-24T12:13:07.162Z,37.23
2023-08-24T12:14:13.064Z,37.98
2023-08-24T12:15:19.761Z,38.12
2023-08-24T12:16:23.071Z,37.81
2023-08-24T12:17:25.226Z,37.63
2023-08-24T12:18:27.557Z,37.26
2023-08-24T12:19:29.606Z,37.01
2023-08-24T12:20:32.336Z,36.83
2023-08-24T12:21:35.784Z,36.83
2023-08-24T12:22:37.702Z,36.43
2023-08-24T12:23:39.776Z,36.18
2023-08-24T12:24:46.364Z,36.29
2023-08-24T12:25:52.157Z,36.39
2023-08-24T12:26:58.094Z,37.63
2023-08-24T12:28:15.157Z,36.97
2023-08-24T12:29:18.963Z,36.85
2023-08-24T12:30:21.135Z,36.63
2023-08-24T12:31:27.898Z,36.28
2023-08-24T12:32:49.301Z,36.43
2023-08-24T12:34:05.425Z,36.23
2023-08-24T12:35:08.835Z,35.84
2023-08-24T12:36:11.540Z,35.86
2023-08-24T12:37:15.162Z,36.61
2023-08-24T12:38:17.339Z,37.03
2023-08-24T12:39:19.351Z,36.63
2023-08-24T12:40:21.642Z,36.54
2023-08-24T12:41:23.643Z,36.27
2023-08-24T12:42:25.683Z,36.80
2023-08-24T12:43:28.973Z,36.67
2023-08-24T12:44:31.451Z,36.23
2023-08-24T12:45:33.607Z,36.19
2023-08-24T12:46:36.064Z,36.31
2023-08-24T12:47:38.129Z,36.09
2023-08-24T12:48:42.945Z,36.33
2023-08-24T12:49:46.763Z,36.45
2023-08-24T12:50:48.840Z,36.32
2023-08-24T12:51:52.081Z,36.33
2023-08-24T12:52:54.109Z,36.64
2023-08-24T12:53:58.169Z,36.73
2023-08-24T12:55:00.286Z,36.07
2023-08-24T12:56:02.399Z,36.06
2023-08-24T12:57:05.307Z,36.31
2023-08-24T12:58:07.365Z,36.06
2023-08-24T12:59:09.586Z,35.83
2023-08-24T13:00:13.390Z,36.12
2023-08-24T13:01:16.452Z,36.57
2023-08-24T13:02:29.213Z,36.62
2023-08-24T13:03:22.472Z,36.38
2023-08-24T13:04:24.642Z,36.65
2023-08-24T13:05:26.924Z,36.63
2023-08-24T13:06:29.116Z,35.73
2023-08-24T13:07:31.030Z,35.50
2023-08-24T13:08:33.243Z,35.81
2023-08-24T13:09:35.513Z,36.07
2023-08-24T13:10:37.837Z,35.58
2023-08-24T13:11:39.880Z,35.27
2023-08-24T13:12:43.318Z,35.20
2023-08-24T13:13:45.436Z,34.88
2023-08-24T13:14:48.018Z,34.50
2023-08-24T13:15:51.890Z,34.57
2023-08-24T13:16:55.209Z,34.78
2023-08-24T13:17:57.375Z,35.11
2023-08-24T13:18:59.798Z,35.66
2023-08-24T13:20:03.502Z,35.66
2023-08-24T13:21:05.429Z,35.80
2023-08-24T13:22:07.653Z,35.71
2023-08-24T13:23:09.709Z,35.66
2023-08-24T13:24:12.568Z,35.58
2023-08-24T13:25:14.806Z,35.25
2023-08-24T13:26:22.243Z,36.12
2023-08-24T13:27:24.489Z,36.69
2023-08-24T13:28:27.096Z,36.72
2023-08-24T13:29:29.339Z,36.67
2023-08-24T13:30:31.717Z,36.87
2023-08-24T13:31:33.781Z,37.00
2023-08-24T13:32:35.713Z,36.47
2023-08-24T13:33:37.727Z,37.29
2023-08-24T13:34:39.793Z,37.09
2023-08-24T13:35:41.682Z,36.99
2023-08-24T13:36:46.557Z,37.22
2023-08-24T13:37:49.089Z,36.43